Time;durP1;ratioP1;P1;durP2;ratioP2;P2;SDS_P1;SDS_P2;PMS_P1;PMS_P2;Temp;Humidity;BMP_temperature;BMP_pressure;BME280_temperature;BME280_humidity;BME280_pressure;Samples;Min_cycle;Max_cycle;Signal;HPM_P1;HPM_P2
2022/08/20 00:00:38;;;;;;;;;;;;;;;23.26;64.24;100158.99;124261;1099;104169;-78
2022/08/20 00:03:15;;;;;;;20.13;8.30;;;;;;;23.25;64.37;100161.70;125632;1098;104488;-77
2022/08/20 00:05:50;;;;;;;18.60;8.03;;;;;;;23.24;64.67;100163.51;124271;1099;104089;-77
2022/08/20 00:08:22;;;;;;;18.00;8.10;;;;;;;23.20;64.59;100167.16;124243;1099;104321;-77
2022/08/20 00:10:55;;;;;;;20.07;8.93;;;;;;;23.17;64.84;100164.58;124265;1099;102090;-78
2022/08/20 00:13:30;;;;;;;23.20;9.00;;;;;;;23.18;65.04;100160.09;124274;1099;119810;-77
2022/08/20 00:16:02;;;;;;;21.70;9.00;;;;;;;23.18;65.23;100157.42;124152;1099;102792;-77
2022/08/20 00:18:35;;;;;;;24.63;8.90;;;;;;;23.16;65.67;100154.77;124269;1099;104214;-77
2022/08/20 00:21:10;;;;;;;20.60;8.40;;;;;;;23.13;65.42;100158.39;124227;1099;104166;-78
2022/08/20 00:23:45;;;;;;;18.63;8.63;;;;;;;23.09;65.23;100156.72;124240;1102;104156;-77
2022/08/20 00:26:17;;;;;;;24.53;9.27;;;;;;;23.05;65.62;100152.30;124166;1099;102810;-77
2022/08/20 00:28:49;;;;;;;19.37;8.77;;;;;;;23.03;65.48;100162.16;124194;1102;104252;-78
2022/08/20 00:31:22;;;;;;;16.83;9.43;;;;;;;23.00;65.92;100155.97;124283;1102;101819;-77
2022/08/20 00:33:54;;;;;;;17.63;8.90;;;;;;;22.95;65.90;100159.64;124216;1099;110595;-77
2022/08/20 00:36:27;;;;;;;24.07;9.27;;;;;;;22.92;66.00;100159.70;124282;1099;104159;-77
2022/08/20 00:38:58;;;;;;;18.30;9.20;;;;;;;22.89;66.27;100169.56;124253;1099;103087;-77
2022/08/20 00:41:30;;;;;;;18.10;9.27;;;;;;;22.86;65.92;100169.63;124220;1099;104162;-77
2022/08/20 00:44:10;;;;;;;24.77;10.30;;;;;;;22.84;66.49;100169.66;124275;1102;104172;-77
2022/08/20 00:46:46;;;;;;;21.67;9.60;;;;;;;22.79;66.77;100160.86;124251;1102;104283;-78
2022/08/20 00:49:23;;;;;;;17.53;9.37;;;;;;;22.83;66.44;100165.24;124314;1102;102197;-77
2022/08/20 00:51:59;;;;;;;20.30;9.70;;;;;;;22.80;66.96;100166.17;124333;1102;104242;-78
2022/08/20 00:54:34;;;;;;;19.50;8.97;;;;;;;22.76;67.02;100153.77;124259;1099;107624;-78
2022/08/20 00:57:09;;;;;;;19.70;9.57;;;;;;;22.72;67.14;100168.12;124320;1099;101960;-77
2022/08/20 00:59:42;;;;;;;21.63;10.13;;;;;;;22.68;67.22;100154.84;124311;1099;104291;-77
2022/08/20 01:02:17;;;;;;;22.60;9.90;;;;;;;22.65;67.01;100160.25;124323;1099;102864;-78
2022/08/20 01:04:58;;;;;;;22.53;10.10;;;;;;;22.64;67.39;100158.48;124282;1102;117763;-77
2022/08/20 01:07:34;;;;;;;22.07;10.35;;;;;;;22.64;67.62;100161.16;124273;1102;102312;-78
2022/08/20 01:10:10;;;;;;;20.02;9.78;;;;;;;22.63;67.48;100164.77;124310;1102;104191;-77
2022/08/20 01:12:46;;;;;;;18.07;9.50;;;;;;;22.61;67.41;100165.66;124247;1102;102165;-78
2022/08/20 01:15:21;;;;;;;22.27;9.93;;;;;;;22.61;67.84;100162.98;124274;1102;104304;-78
2022/08/20 01:17:57;;;;;;;21.03;9.97;;;;;;;22.57;67.89;100155.92;124227;1099;104237;-77
2022/08/20 01:20:32;;;;;;;20.33;10.33;;;;;;;22.56;67.89;100151.51;124176;1102;102768;-77
2022/08/20 01:23:28;;;;;;;21.27;9.90;;;;;;;22.57;68.17;100150.58;124243;1102;102739;-78
2022/08/20 01:26:06;;;;;;;22.73;9.60;;;;;;;22.53;68.26;100150.66;124201;1100;104201;-77
2022/08/20 01:28:42;;;;;;;18.97;9.83;;;;;;;22.49;68.35;100157.00;124244;1102;104334;-77
2022/08/20 01:31:18;;;;;;;23.40;9.93;;;;;;;22.45;68.72;100148.13;124302;1102;104291;-77
2022/08/20 01:33:51;;;;;;;19.47;10.40;;;;;;;22.40;68.85;100155.37;124264;1102;104217;-77
2022/08/20 01:36:26;;;;;;;20.82;9.80;;;;;;;22.36;68.73;100150.98;124203;1102;104160;-77
2022/08/20 01:38:58;;;;;;;21.30;9.80;;;;;;;22.34;68.76;100144.79;124267;1102;104188;-77
2022/08/20 01:41:42;;;;;;;20.73;9.87;;;;;;;22.31;68.66;100147.52;124249;1102;104242;-77
2022/08/20 01:44:14;;;;;;;20.50;9.83;;;;;;;22.24;69.00;100139.58;124168;1102;104286;-77
2022/08/20 01:46:48;;;;;;;20.80;9.80;;;;;;;22.21;69.29;100134.28;124235;1102;104113;-77
2022/08/20 01:49:23;;;;;;;18.50;9.40;;;;;;;22.18;69.34;100128.13;124280;1102;104185;-77
2022/08/20 01:51:59;;;;;;;18.13;9.70;;;;;;;22.17;69.95;100140.58;124244;1100;104271;-77
2022/08/20 01:54:32;;;;;;;22.17;10.90;;;;;;;22.16;69.85;100133.50;124216;1102;104322;-77
2022/08/20 01:57:06;;;;;;;19.27;9.93;;;;;;;22.13;69.93;100137.99;124267;1100;104169;-77
2022/08/20 01:59:38;;;;;;;20.17;10.20;;;;;;;22.08;69.65;100138.98;124200;1101;104265;-77
2022/08/20 02:02:10;;;;;;;21.50;10.47;;;;;;;22.03;69.78;100147.97;124283;1102;104645;-77
2022/08/20 02:04:42;;;;;;;22.90;10.40;;;;;;;21.98;70.23;100141.83;124209;1102;104159;-77
2022/08/20 02:07:18;;;;;;;23.60;10.17;;;;;;;21.93;69.95;100141.03;124293;1102;104331;-77
2022/08/20 02:09:50;;;;;;;21.20;10.47;;;;;;;21.89;70.70;100132.16;124292;1102;104165;-77
2022/08/20 02:12:22;;;;;;;23.13;10.83;;;;;;;21.87;69.91;100129.52;124243;1102;104166;-77
2022/08/20 02:14:55;;;;;;;21.67;10.77;;;;;;;21.89;70.93;100138.41;124288;1102;104160;-77
2022/08/20 02:17:26;;;;;;;;;;;;;;;21.90;70.54;100137.48;124285;1100;102159;-77
2022/08/20 02:20:03;;;;;;;19.23;9.73;;;;;;;21.92;70.73;100141.93;124237;1102;101895;-78
2022/08/20 02:22:39;;;;;;;20.40;10.65;;;;;;;21.88;71.23;100133.97;124236;1100;104242;-76
2022/08/20 02:25:12;;;;;;;20.23;10.67;;;;;;;21.90;70.40;100136.61;124234;1102;103139;-77
2022/08/20 02:27:47;;;;;;;20.93;9.80;;;;;;;21.88;70.97;100144.66;124236;1102;104050;-77
2022/08/20 02:30:22;;;;;;;19.60;10.20;;;;;;;21.90;71.60;100136.61;124288;1102;104217;-78
2022/08/20 02:32:54;;;;;;;20.15;9.85;;;;;;;21.93;71.57;100143.70;124297;1102;104207;-77
2022/08/20 02:35:25;;;;;;;21.30;11.20;;;;;;;21.94;71.17;100143.68;124260;1102;102290;-77
2022/08/20 02:37:57;;;;;;;21.57;10.73;;;;;;;21.94;71.59;100140.11;124212;1099;104233;-77
2022/08/20 02:40:30;;;;;;;19.73;10.00;;;;;;;21.92;71.63;100136.59;124197;1099;102851;-77
2022/08/20 02:43:04;;;;;;;19.60;10.98;;;;;;;21.88;71.20;100131.30;124281;1099;103569;-77
2022/08/20 02:45:42;;;;;;;20.88;10.30;;;;;;;21.87;71.08;100121.52;124313;1099;102174;-77
2022/08/20 02:48:19;;;;;;;21.10;10.13;;;;;;;21.85;71.69;100123.33;124267;1102;104318;-77
2022/08/20 02:50:54;;;;;;;17.73;10.07;;;;;;;21.85;71.71;100117.12;124215;1102;104377;-77
2022/08/20 02:53:26;;;;;;;19.70;10.63;;;;;;;21.83;71.88;100119.81;124228;1101;104246;-76
2022/08/20 02:55:57;;;;;;;22.20;11.03;;;;;;;21.83;71.33;100126.92;124218;1099;104191;-77
2022/08/20 02:58:29;;;;;;;22.63;10.80;;;;;;;21.81;72.22;100118.06;124267;1099;104163;-78
2022/08/20 03:01:01;;;;;;;20.50;10.60;;;;;;;21.81;72.25;100116.27;124290;1099;104184;-77
2022/08/20 03:03:32;;;;;;;21.93;10.10;;;;;;;21.83;71.72;100122.48;124200;1099;104156;-77
2022/08/20 03:06:05;;;;;;;22.77;11.67;;;;;;;21.84;71.75;100126.03;124319;1099;104162;-77
2022/08/20 03:08:37;;;;;;;20.90;10.53;;;;;;;21.83;72.16;100122.48;124274;1099;104229;-77
2022/08/20 03:11:09;;;;;;;20.30;10.97;;;;;;;21.84;72.43;100118.02;124258;1099;104261;-77
2022/08/20 03:13:41;;;;;;;25.57;11.30;;;;;;;21.84;72.07;100118.89;124265;1102;104159;-77
2022/08/20 03:16:13;;;;;;;21.33;11.10;;;;;;;21.85;71.86;100123.33;124200;1099;104185;-77
2022/08/20 03:18:46;;;;;;;25.43;10.23;;;;;;;21.86;72.49;100124.20;124316;1099;102743;-76
2022/08/20 03:21:17;;;;;;;23.62;10.05;;;;;;;21.87;72.82;100121.52;124239;1099;104261;-77
2022/08/20 03:23:49;;;;;;;21.33;10.47;;;;;;;21.85;72.75;100128.67;124218;1099;102193;-77
2022/08/20 03:26:20;;;;;;;19.63;9.73;;;;;;;21.85;72.96;100131.34;124270;1099;102976;-77
2022/08/20 03:28:52;;;;;;;23.83;10.37;;;;;;;21.82;72.66;100131.39;124209;1099;104979;-77
2022/08/20 03:31:24;;;;;;;19.97;9.50;;;;;;;21.82;72.91;100123.38;124282;1102;104262;-77
2022/08/20 03:33:56;;;;;;;18.30;9.43;;;;;;;21.81;72.78;100129.63;124336;1099;104406;-77
2022/08/20 03:36:30;;;;;;;19.97;9.87;;;;;;;21.83;72.28;100121.59;124317;1102;104191;-78
2022/08/20 03:39:05;;;;;;;18.48;11.00;;;;;;;21.81;72.40;100123.41;124294;1102;103017;-77
2022/08/20 03:41:38;;;;;;;21.70;10.13;;;;;;;21.82;73.52;100123.38;124230;1102;104159;-77
2022/08/20 03:44:09;;;;;;;20.47;10.23;;;;;;;21.85;72.79;100123.33;124281;1102;104162;-77
2022/08/20 03:46:40;;;;;;;19.77;10.33;;;;;;;21.89;72.91;100129.50;124219;1102;104224;-77
2022/08/20 03:49:12;;;;;;;21.27;10.27;;;;;;;21.93;73.02;100127.68;124250;1102;104208;-77
2022/08/20 03:51:43;;;;;;;22.47;10.20;;;;;;;21.92;73.55;100126.77;124267;1101;104156;-77
2022/08/20 03:54:15;;;;;;;21.37;10.03;;;;;;;21.93;73.16;100117.87;124209;1102;104326;-77
2022/08/20 03:56:47;;;;;;;19.27;9.43;;;;;;;21.93;73.39;100130.34;124261;1101;104054;-77
2022/08/20 03:59:18;;;;;;;23.47;10.23;;;;;;;21.94;73.88;100130.33;124242;1100;104182;-77
2022/08/20 04:01:51;;;;;;;20.80;9.57;;;;;;;21.97;73.77;100135.61;124266;1100;104191;-77
2022/08/20 04:04:23;;;;;;;19.65;9.58;;;;;;;21.94;73.04;100132.09;124245;1102;104599;-77
2022/08/20 04:06:55;;;;;;;20.57;9.73;;;;;;;21.89;73.29;100129.50;124257;1102;102365;-77
2022/08/20 04:09:26;;;;;;;20.90;9.30;;;;;;;21.87;73.49;100132.20;124276;1102;104213;-77
2022/08/20 04:11:59;;;;;;;18.73;10.27;;;;;;;21.87;73.09;100133.99;124203;1102;104236;-77
2022/08/20 04:14:30;;;;;;;20.93;9.93;;;;;;;21.86;73.74;100127.78;124268;1102;104162;-77
2022/08/20 04:17:07;;;;;;;19.17;9.77;;;;;;;21.84;73.68;100126.03;124273;1102;104284;-77
2022/08/20 04:19:39;;;;;;;19.83;10.63;;;;;;;21.82;73.46;100134.06;124218;1102;104884;-76
2022/08/20 04:22:12;;;;;;;20.83;10.43;;;;;;;21.80;74.00;100127.88;124233;1102;102257;-77
2022/08/20 04:24:44;;;;;;;21.83;10.03;;;;;;;21.81;74.08;100134.09;124300;1102;104156;-77
2022/08/20 04:27:15;;;;;;;23.40;10.47;;;;;;;21.81;73.57;100140.30;124243;1102;102168;-77
2022/08/20 04:29:47;;;;;;;21.10;10.40;;;;;;;21.81;73.99;100134.09;124281;1102;102817;-77
2022/08/20 04:32:20;;;;;;;18.13;10.30;;;;;;;21.83;74.24;100135.84;124256;1102;102797;-77
2022/08/20 04:34:52;;;;;;;20.08;10.08;;;;;;;21.84;73.81;100134.91;124265;1102;104689;-77
2022/08/20 04:37:24;;;;;;;22.90;10.13;;;;;;;21.85;74.27;100139.36;124218;1102;104230;-77
2022/08/20 04:42:47;;;;;;;18.00;9.87;;;;;;;21.88;73.56;100146.45;124203;1102;103672;-77
2022/08/20 04:45:18;;;;;;;23.10;9.80;;;;;;;21.89;73.99;100150.86;124231;1102;104405;-77
2022/08/20 04:47:50;;;;;;;21.33;10.03;;;;;;;21.89;73.76;100145.52;124256;1102;101912;-77
2022/08/20 04:50:22;;;;;;;19.17;10.00;;;;;;;21.93;74.04;100149.05;124210;1100;104163;-76
2022/08/20 04:52:58;;;;;;;24.30;10.10;;;;;;;21.98;74.52;100150.71;124276;1101;104192;-77
2022/08/20 04:55:30;;;;;;;21.47;9.70;;;;;;;22.00;73.83;100156.94;124288;1102;104256;-77
2022/08/20 04:58:07;;;;;;;19.10;10.03;;;;;;;22.01;73.96;100158.67;124233;1101;104061;-77
2022/08/20 05:00:38;;;;;;;19.27;9.60;;;;;;;22.03;73.89;100151.54;124271;1102;104271;-77
2022/08/20 05:03:10;;;;;;;19.50;9.87;;;;;;;22.05;74.20;100159.53;124215;1102;104688;-77
2022/08/20 05:05:43;;;;;;;18.97;9.83;;;;;;;22.06;74.65;100153.25;124270;1102;104169;-77
2022/08/20 05:08:16;;;;;;;21.02;9.48;;;;;;;22.07;74.83;100161.25;124290;1101;102618;-77
2022/08/20 05:10:48;;;;;;;22.90;10.43;;;;;;;22.12;74.88;100157.62;124226;1102;102156;-77
2022/08/20 05:13:20;;;;;;;26.70;10.57;;;;;;;22.13;74.69;100162.94;124284;1100;104195;-77
2022/08/20 05:15:52;;;;;;;24.20;10.07;;;;;;;22.14;74.96;100154.00;124219;1100;104277;-77
2022/08/20 05:18:25;;;;;;;24.30;10.10;;;;;;;22.13;74.36;100157.59;124253;1102;104217;-77
2022/08/20 05:21:04;;;;;;;;;;;;;;;22.14;74.53;100159.34;124316;1102;102973;-77
2022/08/20 05:23:41;;;;;;;18.47;9.83;;;;;;;22.16;74.72;100157.55;124186;1102;104252;-77
2022/08/20 05:26:14;;;;;;;21.50;9.60;;;;;;;22.22;74.62;100156.53;124266;1102;104288;-77
2022/08/20 05:28:47;;;;;;;20.43;10.35;;;;;;;22.28;74.63;100155.55;124246;1102;104191;-77
2022/08/20 05:31:19;;;;;;;21.73;10.30;;;;;;;22.35;74.46;100155.45;124331;1102;104363;-76
2022/08/20 05:33:51;;;;;;;18.80;9.53;;;;;;;22.40;74.92;100156.23;124283;1102;104226;-76
2022/08/20 05:36:22;;;;;;;17.47;9.33;;;;;;;22.43;74.58;100160.66;124232;1102;104255;-77
2022/08/20 05:38:54;;;;;;;16.20;8.80;;;;;;;22.45;74.65;100156.16;124292;1102;104242;-76
2022/08/20 05:41:27;;;;;;;18.90;9.60;;;;;;;22.48;74.46;100158.77;124219;1099;102485;-77
2022/08/20 05:44:00;;;;;;;16.10;8.80;;;;;;;22.51;74.25;100150.69;124194;1099;104232;-77
2022/08/20 05:46:33;;;;;;;18.27;9.23;;;;;;;22.56;74.47;100148.84;124251;1102;104294;-77
2022/08/20 05:49:05;;;;;;;20.00;9.77;;;;;;;22.60;74.59;100146.97;124249;1102;104281;-77
2022/08/20 05:51:36;;;;;;;18.27;10.10;;;;;;;22.68;74.76;100149.50;124293;1102;102833;-77
2022/08/20 05:54:08;;;;;;;27.40;9.70;;;;;;;22.75;74.78;100151.12;124231;1102;104217;-77
2022/08/20 05:56:40;;;;;;;21.50;9.27;;;;;;;22.82;74.69;100147.42;124234;1101;104198;-77
2022/08/20 05:59:13;;;;;;;18.20;9.30;;;;;;;22.91;74.37;100146.36;124232;1099;104255;-77
2022/08/20 06:01:44;;;;;;;22.43;9.63;;;;;;;22.96;74.07;100147.13;124261;1099;103340;-77
2022/08/20 06:04:26;;;;;;;20.47;9.43;;;;;;;23.01;73.95;100147.04;124274;1102;104264;-77
2022/08/20 06:07:08;;;;;;;23.50;9.20;;;;;;;23.04;74.32;100146.97;124193;1099;104211;-77
2022/08/20 06:09:39;;;;;;;21.13;10.13;;;;;;;23.09;73.97;100145.11;124258;1099;102677;-77
2022/08/20 06:12:11;;;;;;;19.63;9.10;;;;;;;23.09;74.13;100143.33;124232;1100;102787;-76
2022/08/20 06:14:42;;;;;;;20.40;9.73;;;;;;;23.09;73.72;100145.11;124212;1102;102801;-77
2022/08/20 06:17:16;;;;;;;22.03;9.97;;;;;;;23.10;73.70;100144.20;124251;1102;104509;-77
2022/08/20 06:19:48;;;;;;;21.48;9.50;;;;;;;23.12;73.72;100150.39;124208;1099;104172;-77
2022/08/20 06:22:19;;;;;;;22.77;9.97;;;;;;;23.14;73.91;100154.81;124278;1099;102886;-77
2022/08/20 06:24:51;;;;;;;18.33;9.13;;;;;;;23.20;73.67;100148.42;124293;1102;104307;-77
2022/08/20 06:27:23;;;;;;;19.37;9.57;;;;;;;23.27;73.65;100147.38;124199;1099;104438;-77
2022/08/20 06:30:17;;;;;;;18.80;9.43;;;;;;;23.34;73.60;100140.08;124239;1099;102826;-77
2022/08/20 06:32:58;;;;;;;20.63;9.20;;;;;;;23.42;73.80;100139.91;124211;1099;102380;-77
2022/08/20 06:35:31;;;;;;;22.27;9.37;;;;;;;23.47;73.43;100132.67;124256;1102;102156;-77
2022/08/20 06:38:05;;;;;;;17.40;8.85;;;;;;;23.52;73.22;100133.44;124196;1102;104235;-77
2022/08/20 06:40:38;;;;;;;18.10;8.90;;;;;;;23.60;73.26;100134.12;124254;1099;104265;-78
2022/08/20 06:43:10;;;;;;;17.93;8.73;;;;;;;23.67;73.25;100122.36;124252;1099;104176;-78
2022/08/20 06:45:44;;;;;;;17.43;8.70;;;;;;;23.76;73.20;100126.59;124251;1099;104162;-76
2022/08/20 06:48:16;;;;;;;17.37;8.85;;;;;;;23.88;72.78;100128.13;124276;1099;104238;-76
2022/08/20 06:50:49;;;;;;;20.33;9.03;;;;;;;23.99;72.73;100130.54;124250;1099;104265;-77
2022/08/20 06:53:22;;;;;;;14.37;8.53;;;;;;;24.07;72.82;100131.22;124236;1099;104753;-76
2022/08/20 06:55:57;;;;;;;19.77;8.50;;;;;;;24.13;72.54;100131.06;124212;1103;104150;-77
2022/08/20 06:58:30;;;;;;;18.13;9.37;;;;;;;24.24;72.39;100128.09;124250;1102;104271;-77
2022/08/20 07:01:02;;;;;;;16.20;8.63;;;;;;;24.33;72.43;100126.98;124267;1099;104233;-77
2022/08/20 07:03:33;;;;;;;19.20;8.63;;;;;;;24.44;71.95;100129.38;124247;1099;104302;-77
2022/08/20 07:06:07;;;;;;;17.67;8.60;;;;;;;24.57;71.59;100133.48;124301;1099;102775;-77
2022/08/20 07:08:39;;;;;;;24.10;8.90;;;;;;;24.71;71.48;100136.69;124344;1099;104268;-78
2022/08/20 07:11:11;;;;;;;17.37;8.63;;;;;;;24.82;71.23;100138.16;124270;1102;102893;-78
2022/08/20 07:13:42;;;;;;;18.03;8.20;;;;;;;24.96;70.94;100141.31;124252;1099;102267;-77
2022/08/20 07:16:14;;;;;;;17.63;8.43;;;;;;;25.06;70.15;100137.44;124225;1099;104449;-77
2022/08/20 07:18:45;;;;;;;24.13;8.63;;;;;;;25.21;70.54;100130.74;124162;1099;104076;-77
2022/08/20 07:21:17;;;;;;;17.43;8.93;;;;;;;25.34;70.34;100133.05;124233;1099;104360;-77
2022/08/20 07:23:48;;;;;;;18.90;8.53;;;;;;;25.47;70.13;100134.44;124226;1102;104259;-78
2022/08/20 07:26:23;;;;;;;19.23;8.80;;;;;;;25.62;70.30;100133.95;124212;1099;104265;-78
2022/08/20 07:28:55;;;;;;;18.13;8.40;;;;;;;25.77;69.40;100131.67;124256;1099;103073;-77
2022/08/20 07:34:17;;;;;;;17.27;8.70;;;;;;;26.09;68.70;100136.01;124211;1101;104227;-77
2022/08/20 07:36:49;;;;;;;16.10;7.67;;;;;;;26.24;67.32;100131.02;124215;1102;104201;-77
2022/08/20 07:39:21;;;;;;;22.87;8.67;;;;;;;26.30;67.92;100131.71;124251;1102;104242;-77
2022/08/20 07:42:01;;;;;;;19.83;8.00;;;;;;;26.42;67.11;100135.75;124253;1102;102929;-78
2022/08/20 07:44:33;;;;;;;17.30;8.20;;;;;;;26.60;67.30;100138.70;124259;1099;104389;-76
2022/08/20 07:47:06;;;;;;;18.70;8.27;;;;;;;26.76;66.43;100134.56;124249;1099;104169;-77
2022/08/20 07:49:40;;;;;;;18.80;8.60;;;;;;;26.93;66.07;100138.41;124302;1098;102801;-77
2022/08/20 07:52:12;;;;;;;17.40;7.70;;;;;;;27.08;65.62;100136.04;124257;1099;103601;-78
2022/08/20 07:54:43;;;;;;;20.13;8.90;;;;;;;27.27;65.68;100129.94;124288;1102;104281;-77
2022/08/20 07:57:16;;;;;;;19.03;7.80;;;;;;;27.36;65.49;100123.33;124208;1102;104342;-77
2022/08/20 07:59:48;;;;;;;19.57;7.37;;;;;;;27.36;64.46;100128.71;124228;1101;104166;-77
2022/08/20 08:02:19;;;;;;;15.40;7.80;;;;;;;27.48;64.57;100130.91;124298;1099;104249;-77
2022/08/20 08:04:51;;;;;;;19.30;8.00;;;;;;;27.60;63.75;100119.64;124260;1102;104222;-78
2022/08/20 08:07:25;;;;;;;23.23;8.20;;;;;;;27.70;63.98;100122.83;125692;1099;102234;-78
2022/08/20 08:09:57;;;;;;;16.00;7.23;;;;;;;27.80;63.06;100128.73;124151;1099;104355;-78
2022/08/20 08:12:36;;;;;;;20.13;7.73;;;;;;;27.98;62.81;100127.09;124353;1100;104169;-77
2022/08/20 08:15:13;;;;;;;17.73;7.60;;;;;;;27.99;61.73;100131.56;124235;1102;104181;-78
2022/08/20 08:17:47;;;;;;;16.20;7.37;;;;;;;28.02;61.83;100130.53;124207;1102;104172;-78
2022/08/20 08:20:19;;;;;;;15.13;7.43;;;;;;;27.98;61.06;100124.41;124216;1102;104246;-78
2022/08/20 08:22:52;;;;;;;18.53;7.80;;;;;;;27.93;61.09;100124.56;124275;1099;104201;-77
2022/08/20 08:25:24;;;;;;;19.37;7.83;;;;;;;27.89;60.94;100120.27;124234;1099;104239;-78
2022/08/20 08:27:56;;;;;;;16.70;7.50;;;;;;;27.85;60.99;100118.63;124231;1099;104192;-77
2022/08/20 08:30:28;;;;;;;16.07;7.87;;;;;;;27.75;60.82;100110.05;124284;1099;104284;-77
2022/08/20 08:35:49;;;;;;;19.30;7.90;;;;;;;27.80;60.02;100115.26;124286;1102;104152;-77
2022/08/20 08:38:22;;;;;;;19.70;8.13;;;;;;;27.82;59.93;100118.76;124240;1102;101844;-77
2022/08/20 08:40:56;;;;;;;18.23;7.25;;;;;;;27.81;59.61;100122.38;124244;1102;102916;-78
2022/08/20 08:43:29;;;;;;;20.37;6.73;;;;;;;27.88;59.57;100115.80;124241;1102;104178;-77
2022/08/20 08:46:06;;;;;;;14.20;7.13;;;;;;;28.02;59.17;100111.66;124293;1099;103109;-77
2022/08/20 08:48:42;;;;;;;18.43;8.47;;;;;;;28.20;58.78;100110.00;124221;1099;104381;-77
2022/08/20 08:51:16;;;;;;;17.73;7.10;;;;;;;28.25;57.93;100107.97;125723;1098;104281;-77
2022/08/20 08:53:53;;;;;;;17.00;6.93;;;;;;;28.33;57.32;100114.78;124309;1101;104242;-77
2022/08/20 08:56:28;;;;;;;14.77;7.00;;;;;;;28.29;56.53;100110.46;124222;1102;102785;-77
2022/08/20 08:59:03;;;;;;;18.93;6.90;;;;;;;28.30;56.07;100109.53;124199;1102;102963;-77
2022/08/20 09:01:41;;;;;;;16.80;6.93;;;;;;;28.29;55.78;100107.77;124190;1102;102008;-76
2022/08/20 09:04:15;;;;;;;16.50;6.80;;;;;;;28.39;56.43;100099.27;124284;1099;102753;-77
2022/08/20 09:06:46;;;;;;;17.03;6.93;;;;;;;28.54;56.04;100093.17;124254;1099;104195;-77
2022/08/20 09:09:22;;;;;;;16.30;6.37;;;;;;;28.62;56.11;100099.13;124325;1097;102514;-77
2022/08/20 09:11:57;;;;;;;13.07;6.00;;;;;;;28.72;55.69;100091.50;124336;1099;104246;-77
2022/08/20 09:14:28;;;;;;;15.03;6.63;;;;;;;28.77;55.34;100086.76;124213;1102;107907;-78
2022/08/20 09:17:00;;;;;;;15.23;6.43;;;;;;;28.92;54.74;100098.68;124268;1099;104233;-77
2022/08/20 09:19:36;;;;;;;14.85;6.50;;;;;;;29.04;54.44;100089.10;124208;1099;104265;-77
2022/08/20 09:22:13;;;;;;;15.93;6.30;;;;;;;29.17;54.01;100092.08;124944;1099;104168;-77
2022/08/20 09:24:45;;;;;;;14.77;6.57;;;;;;;29.29;54.18;100091.52;124230;1102;118145;-78
2022/08/20 09:27:18;;;;;;;13.00;6.33;;;;;;;29.32;52.74;100079.70;124243;1099;104159;-78
2022/08/20 09:29:52;;;;;;;12.17;6.00;;;;;;;29.39;53.07;100086.57;125548;1101;101947;-78
2022/08/20 09:32:25;;;;;;;20.73;7.10;;;;;;;29.48;52.92;100093.33;124278;1099;104185;-78
2022/08/20 09:34:58;;;;;;;14.93;6.47;;;;;;;29.66;52.15;100089.72;125181;1101;104239;-78
2022/08/20 09:37:32;;;;;;;13.98;7.03;;;;;;;29.68;51.84;100090.50;124318;1102;104293;-78
2022/08/20 09:40:07;;;;;;;17.67;6.63;;;;;;;29.70;51.71;100088.62;124360;1102;104401;-78
2022/08/20 09:42:40;;;;;;;15.23;6.40;;;;;;;29.58;51.16;100081.13;124333;1102;104272;-78
2022/08/20 09:45:13;;;;;;;16.57;6.20;;;;;;;29.49;50.81;100081.58;124338;1099;111195;-78
2022/08/20 09:47:45;;;;;;;16.37;7.15;;;;;;;29.39;50.58;100084.73;124352;1099;104162;-78
2022/08/20 09:50:18;;;;;;;13.17;6.47;;;;;;;29.36;50.63;100084.02;124995;1099;103591;-78
2022/08/20 09:52:53;;;;;;;11.53;5.97;;;;;;;29.46;50.82;100077.19;124959;1099;102397;-78
2022/08/20 09:55:31;;;;;;;14.37;6.13;;;;;;;29.62;50.40;100077.29;125693;1102;102860;-78
2022/08/20 09:58:06;;;;;;;17.50;6.60;;;;;;;29.77;50.62;100081.06;124289;1100;104185;-78
2022/08/20 10:00:37;;;;;;;19.57;6.50;;;;;;;29.72;50.13;100070.48;124271;1102;102391;-78
2022/08/20 10:03:09;;;;;;;17.17;6.43;;;;;;;29.67;50.32;100077.06;124185;1100;104211;-78
2022/08/20 10:05:40;;;;;;;17.80;6.67;;;;;;;29.55;49.69;100073.16;124296;1102;108092;-78
2022/08/20 10:08:14;;;;;;;14.47;6.60;;;;;;;29.40;50.03;100083.80;124296;1099;104060;-77
2022/08/20 10:10:47;;;;;;;14.80;6.77;;;;;;;29.25;49.74;100081.84;124222;1099;104153;-77
2022/08/20 10:13:22;;;;;;;16.87;6.77;;;;;;;29.24;50.05;100081.91;124271;1102;104204;-77
2022/08/20 10:15:54;;;;;;;15.90;6.67;;;;;;;29.32;49.52;100079.70;124231;1099;118663;-78
2022/08/20 10:18:25;;;;;;;19.47;6.80;;;;;;;29.42;49.87;100088.23;124258;1102;104165;-77
2022/08/20 10:20:57;;;;;;;18.13;7.70;;;;;;;29.55;49.29;100073.16;124286;1099;104240;-77
2022/08/20 10:23:28;;;;;;;14.77;6.70;;;;;;;29.62;49.01;100077.29;124228;1099;104175;-77
2022/08/20 10:26:00;;;;;;;13.07;6.23;;;;;;;29.68;49.16;100068.88;124245;1099;104195;-77
2022/08/20 10:28:31;;;;;;;13.70;6.33;;;;;;;29.84;49.26;100078.94;124262;1099;102119;-77
2022/08/20 10:31:05;;;;;;;16.60;6.50;;;;;;;30.00;49.28;100070.94;124267;1099;103605;-77
2022/08/20 10:33:37;;;;;;;16.50;5.90;;;;;;;30.11;48.97;100072.11;124197;1098;102896;-76
2022/08/20 10:36:11;;;;;;;13.93;6.30;;;;;;;30.15;48.16;100070.11;124225;1099;104204;-78
2022/08/20 10:38:43;;;;;;;15.73;6.60;;;;;;;30.23;48.48;100067.00;124348;1102;104162;-77
2022/08/20 10:41:14;;;;;;;16.27;6.77;;;;;;;30.32;48.38;100066.51;124244;1099;104169;-77
2022/08/20 10:43:46;;;;;;;13.00;6.37;;;;;;;30.35;48.19;100063.64;124220;1099;104217;-77
2022/08/20 10:46:18;;;;;;;17.13;6.40;;;;;;;30.36;47.85;100054.57;124221;1099;102194;-77
2022/08/20 10:48:49;;;;;;;18.00;6.93;;;;;;;30.38;47.47;100052.65;126043;1098;104208;-77
2022/08/20 10:51:29;;;;;;;17.60;6.57;;;;;;;30.41;47.13;100049.81;124188;1099;104172;-77
2022/08/20 10:54:00;;;;;;;17.00;6.17;;;;;;;30.43;46.71;100052.44;124248;1099;102775;-77
2022/08/20 10:56:32;;;;;;;14.70;6.10;;;;;;;30.51;47.15;100049.31;124188;1099;104165;-77
2022/08/20 10:59:07;;;;;;;14.13;6.10;;;;;;;30.51;46.25;100050.20;124324;1099;102864;-77
2022/08/20 11:01:38;;;;;;;14.17;5.67;;;;;;;30.53;46.13;100053.70;125498;1098;104239;-77
2022/08/20 11:04:10;;;;;;;14.80;6.60;;;;;;;30.64;45.98;100053.11;124212;1099;102395;-77
2022/08/20 11:06:41;;;;;;;16.23;6.40;;;;;;;30.67;45.86;100052.05;124202;1102;104245;-77
2022/08/20 11:09:13;;;;;;;12.57;6.27;;;;;;;30.62;45.80;100055.91;124238;1099;104169;-77
2022/08/20 11:11:44;;;;;;;16.37;7.50;;;;;;;30.50;45.35;100050.29;124293;1099;102178;-77
2022/08/20 11:14:15;;;;;;;15.77;6.63;;;;;;;30.35;45.63;100046.53;124228;1099;104223;-77
2022/08/20 11:16:47;;;;;;;13.23;5.97;;;;;;;30.15;45.33;100039.48;124250;1099;104236;-77
2022/08/20 11:19:18;;;;;;;16.57;7.00;;;;;;;30.03;45.45;100044.59;124243;1099;102758;-77
2022/08/20 11:21:49;;;;;;;14.93;6.80;;;;;;;29.97;45.03;100039.50;124213;1099;102404;-76
2022/08/20 11:24:21;;;;;;;16.10;6.30;;;;;;;30.07;45.44;100034.47;124297;1099;102858;-77
2022/08/20 11:26:53;;;;;;;18.50;7.07;;;;;;;30.10;45.33;100032.47;124245;1099;104179;-77
2022/08/20 11:29:24;;;;;;;13.77;6.50;;;;;;;30.24;45.07;100033.58;124311;1099;104175;-77
2022/08/20 11:31:56;;;;;;;11.97;6.17;;;;;;;30.35;44.90;100025.75;124279;1099;102920;-77
2022/08/20 11:34:27;;;;;;;11.63;5.93;;;;;;;30.41;45.02;100020.03;124247;1102;104414;-77